createdAt,value
2023-01-25T00:01:19.312Z,5.47
2023-01-25T00:03:47.444Z,5.44
2023-01-25T00:06:17.263Z,5.47
2023-01-25T00:08:45.313Z,5.47
2023-01-25T00:11:13.550Z,5.46
2023-01-25T00:13:41.748Z,5.43
2023-01-25T00:16:09.989Z,5.49
2023-01-25T00:18:38.102Z,5.52
2023-01-25T00:21:14.050Z,5.53
2023-01-25T00:23:43.586Z,5.56
2023-01-25T00:26:11.724Z,5.59
2023-01-25T00:28:39.971Z,5.61
2023-01-25T00:31:09.410Z,5.63
2023-01-25T00:33:50.755Z,5.57
2023-01-25T00:36:43.074Z,5.51
2023-01-25T00:39:14.609Z,5.46
2023-01-25T00:41:42.620Z,5.46
2023-01-25T00:44:11.033Z,5.42
2023-01-25T00:46:39.025Z,5.37
2023-01-25T00:49:07.401Z,5.37
2023-01-25T00:51:35.568Z,5.36
2023-01-25T00:54:03.625Z,5.41
2023-01-25T00:56:33.193Z,5.48
2023-01-25T00:59:01.729Z,5.52
2023-01-25T01:01:29.739Z,5.63
2023-01-25T01:03:57.781Z,5.76
2023-01-25T01:06:25.816Z,5.87
2023-01-25T01:08:53.923Z,5.94
2023-01-25T01:11:21.934Z,5.97
2023-01-25T01:13:51.431Z,6.01
2023-01-25T01:16:19.541Z,6.07
2023-01-25T01:18:48.384Z,6.17
2023-01-25T01:21:17.115Z,6.24
2023-01-25T01:23:45.536Z,6.31
2023-01-25T01:26:15.825Z,6.35
2023-01-25T01:28:45.004Z,6.40
2023-01-25T01:31:16.278Z,6.41
2023-01-25T01:33:44.525Z,6.41
2023-01-25T01:36:15.103Z,6.39
2023-01-25T01:38:43.839Z,6.33
2023-01-25T01:41:12.643Z,6.30
2023-01-25T01:43:41.065Z,6.33
2023-01-25T01:46:16.303Z,6.37
2023-01-25T01:48:49.309Z,6.43
2023-01-25T01:51:24.232Z,6.50
2023-01-25T01:53:57.290Z,6.59
2023-01-25T01:56:32.345Z,6.67
2023-01-25T01:59:01.619Z,6.76
2023-01-25T02:01:31.610Z,6.84
2023-01-25T02:04:01.317Z,6.87
2023-01-25T02:06:37.993Z,6.91
2023-01-25T02:09:06.133Z,6.93
2023-01-25T02:11:35.307Z,6.97
2023-01-25T02:14:03.947Z,6.99
2023-01-25T02:16:35.339Z,7.00
2023-01-25T02:19:04.851Z,7.00
2023-01-25T02:21:42.349Z,6.98
2023-01-25T02:24:16.056Z,6.95
2023-01-25T02:26:46.017Z,6.90
2023-01-25T02:29:14.692Z,6.90
2023-01-25T02:31:45.852Z,6.94
2023-01-25T02:34:14.092Z,7.01
2023-01-25T02:36:42.559Z,7.06
2023-01-25T02:39:17.294Z,7.17
2023-01-25T02:41:49.485Z,7.22
2023-01-25T02:44:20.025Z,7.28
2023-01-25T02:46:49.022Z,7.33
2023-01-25T02:49:17.580Z,7.40
2023-01-25T02:51:47.702Z,7.46
2023-01-25T02:54:18.947Z,7.46
2023-01-25T02:56:48.629Z,7.42
2023-01-25T02:59:19.098Z,7.38
2023-01-25T03:01:49.032Z,7.39
2023-01-25T03:04:17.713Z,7.38
2023-01-25T03:06:45.794Z,7.38
2023-01-25T03:09:14.058Z,7.38
2023-01-25T03:11:43.369Z,7.41
2023-01-25T03:14:12.868Z,7.42
2023-01-25T03:16:41.061Z,7.45
2023-01-25T03:19:09.074Z,7.45
2023-01-25T03:21:37.072Z,7.47
2023-01-25T03:24:05.545Z,7.47
2023-01-25T03:26:53.616Z,7.46
2023-01-25T03:29:23.127Z,7.44
2023-01-25T03:31:51.420Z,7.41
2023-01-25T03:34:19.709Z,7.38
2023-01-25T03:36:47.943Z,7.39
2023-01-25T03:39:15.973Z,7.42
2023-01-25T03:41:44.068Z,7.47
2023-01-25T03:44:12.655Z,7.49
2023-01-25T03:46:42.859Z,7.52
2023-01-25T03:49:11.172Z,7.56
2023-01-25T03:51:39.814Z,7.59
2023-01-25T03:54:08.483Z,7.64
2023-01-25T03:56:36.588Z,7.66
2023-01-25T03:59:04.985Z,7.67
2023-01-25T04:01:33.144Z,7.65
2023-01-25T04:04:04.326Z,7.65
2023-01-25T04:06:32.417Z,7.66
2023-01-25T04:09:00.485Z,7.71
2023-01-25T04:11:28.983Z,7.74
2023-01-25T04:13:57.337Z,7.78
2023-01-25T04:16:25.643Z,7.82
2023-01-25T04:18:53.763Z,7.86
2023-01-25T04:21:23.499Z,7.88
2023-01-25T04:23:51.819Z,7.91
2023-01-25T04:26:20.096Z,7.92
2023-01-25T04:28:48.222Z,7.95
2023-01-25T04:31:17.636Z,7.97
2023-01-25T04:33:45.967Z,7.99
2023-01-25T04:36:14.050Z,8.02
2023-01-25T04:38:43.729Z,8.07
2023-01-25T04:41:11.954Z,8.09
2023-01-25T04:43:40.266Z,8.11
2023-01-25T04:46:08.411Z,8.12
2023-01-25T04:48:37.112Z,8.12
2023-01-25T04:51:05.292Z,8.16
2023-01-25T04:53:35.689Z,8.22
2023-01-25T04:56:05.890Z,8.23
2023-01-25T04:58:33.956Z,8.24
2023-01-25T05:01:02.849Z,8.26
2023-01-25T05:03:31.283Z,8.22
2023-01-25T05:05:59.974Z,8.27
2023-01-25T05:08:28.191Z,8.29
2023-01-25T05:10:56.502Z,8.31
2023-01-25T05:13:26.161Z,8.33
2023-01-25T05:15:54.214Z,8.35
2023-01-25T05:18:22.319Z,8.36
2023-01-25T05:20:55.878Z,8.38
2023-01-25T05:23:24.588Z,8.39
2023-01-25T05:26:10.292Z,8.42
2023-01-25T05:28:39.855Z,8.42
2023-01-25T05:31:09.083Z,8.43
2023-01-25T05:33:37.485Z,8.44
2023-01-25T05:36:05.684Z,8.44
2023-01-25T05:38:33.796Z,8.47
2023-01-25T05:41:01.907Z,8.47
2023-01-25T05:43:31.632Z,8.48
2023-01-25T05:46:02.690Z,8.49
2023-01-25T05:48:30.783Z,8.50
2023-01-25T05:51:00.293Z,8.49
2023-01-25T05:53:28.498Z,8.51
2023-01-25T05:55:57.520Z,8.56
2023-01-25T05:58:25.513Z,8.57
2023-01-25T06:00:53.590Z,8.62
2023-01-25T06:03:23.191Z,8.67
2023-01-25T06:05:56.413Z,8.68
2023-01-25T06:08:24.490Z,8.72
2023-01-25T06:10:52.591Z,8.73
2023-01-25T06:13:22.632Z,8.77
2023-01-25T06:15:54.452Z,8.81
2023-01-25T06:18:25.722Z,8.83
2023-01-25T06:20:54.452Z,8.87
2023-01-25T06:23:22.523Z,8.88
2023-01-25T06:25:50.794Z,8.88
2023-01-25T06:28:18.802Z,8.89
2023-01-25T06:30:46.945Z,8.94
2023-01-25T06:33:15.110Z,8.95
2023-01-25T06:35:44.983Z,8.99
2023-01-25T06:38:13.531Z,9.01
2023-01-25T06:40:41.786Z,9.05
2023-01-25T06:43:11.101Z,9.07
2023-01-25T06:45:40.290Z,9.11
2023-01-25T06:48:08.821Z,9.12
2023-01-25T06:50:37.097Z,9.16
2023-01-25T06:53:06.676Z,9.16
2023-01-25T06:55:35.086Z,9.19
2023-01-25T06:58:04.764Z,9.20
2023-01-25T07:00:32.801Z,9.20
2023-01-25T07:03:01.055Z,9.22
2023-01-25T07:05:29.136Z,9.20
2023-01-25T07:07:57.358Z,9.22
2023-01-25T07:10:27.128Z,9.22
2023-01-25T07:12:55.258Z,9.23
2023-01-25T07:15:24.070Z,9.25
2023-01-25T07:17:52.153Z,9.26
2023-01-25T07:20:20.458Z,9.25
2023-01-25T07:22:49.478Z,9.28
2023-01-25T07:25:17.806Z,9.30
2023-01-25T07:27:49.521Z,9.29
2023-01-25T07:30:21.762Z,9.32
2023-01-25T07:32:51.708Z,9.32
2023-01-25T07:35:22.852Z,9.35
2023-01-25T07:37:50.969Z,9.36
2023-01-25T07:40:19.035Z,9.38
2023-01-25T07:42:48.706Z,9.37
2023-01-25T07:45:16.746Z,9.41
2023-01-25T07:47:44.913Z,9.41
2023-01-25T07:50:15.530Z,9.40
2023-01-25T07:52:43.600Z,9.40
2023-01-25T07:55:12.177Z,9.40
2023-01-25T07:57:40.351Z,9.41
2023-01-25T08:00:13.298Z,9.45
2023-01-25T08:02:41.679Z,9.45
2023-01-25T08:05:11.333Z,9.48
2023-01-25T08:07:39.570Z,9.48
2023-01-25T08:10:11.254Z,9.49
2023-01-25T08:12:39.421Z,9.49
2023-01-25T08:15:10.543Z,9.50
2023-01-25T08:17:39.027Z,9.51
2023-01-25T08:20:08.941Z,9.55
2023-01-25T08:22:36.905Z,9.58
2023-01-25T08:25:06.428Z,9.59
2023-01-25T08:27:34.605Z,9.64
2023-01-25T08:30:03.595Z,9.69
2023-01-25T08:32:32.901Z,9.70
2023-01-25T08:35:00.835Z,9.74
2023-01-25T08:37:29.731Z,9.77
2023-01-25T08:39:59.985Z,9.80
2023-01-25T08:42:28.099Z,9.82
2023-01-25T08:44:56.231Z,9.84
2023-01-25T08:47:24.378Z,9.90
2023-01-25T08:49:55.353Z,9.92
2023-01-25T08:52:24.362Z,9.95
2023-01-25T08:54:52.443Z,9.97
2023-01-25T08:57:20.435Z,10.02
2023-01-25T08:59:49.171Z,10.04
2023-01-25T09:02:17.264Z,10.04
2023-01-25T09:04:45.275Z,10.05
2023-01-25T09:07:15.064Z,10.07
2023-01-25T09:09:43.607Z,10.10
2023-01-25T09:12:11.780Z,10.13
2023-01-25T09:14:40.796Z,10.15
2023-01-25T09:17:08.956Z,10.14
2023-01-25T09:19:37.091Z,10.16
2023-01-25T09:22:05.171Z,10.17
2023-01-25T09:24:37.290Z,10.19
2023-01-25T09:27:06.019Z,10.20
2023-01-25T09:29:34.132Z,10.23
2023-01-25T09:32:02.417Z,10.26
2023-01-25T09:34:30.818Z,10.31
2023-01-25T09:36:58.880Z,10.38
2023-01-25T09:39:26.963Z,10.43
2023-01-25T09:42:26.052Z,10.52
2023-01-25T09:45:12.397Z,10.60
2023-01-25T09:47:48.345Z,10.65
2023-01-25T09:50:35.772Z,10.72
2023-01-25T09:53:33.941Z,10.79
2023-01-25T09:56:05.604Z,10.84
2023-01-25T09:58:38.454Z,10.92
2023-01-25T10:01:38.747Z,10.98
2023-01-25T10:04:14.807Z,11.04
2023-01-25T10:06:55.043Z,11.07
2023-01-25T10:09:38.427Z,11.11
2023-01-25T10:12:15.419Z,11.15
2023-01-25T10:14:45.154Z,11.20
2023-01-25T10:17:21.708Z,11.26
2023-01-25T10:20:02.939Z,11.28
2023-01-25T10:22:36.816Z,11.30
2023-01-25T10:25:30.557Z,11.36
2023-01-25T10:28:17.648Z,11.42
2023-01-25T10:30:54.732Z,11.48
2023-01-25T10:33:22.942Z,11.58
2023-01-25T10:35:51.994Z,11.66
2023-01-25T10:38:27.058Z,11.72
2023-01-25T10:41:02.371Z,11.78
2023-01-25T10:43:30.696Z,11.83
2023-01-25T10:46:01.016Z,11.85
2023-01-25T10:48:33.870Z,11.86
2023-01-25T10:51:02.234Z,11.87
2023-01-25T10:53:33.609Z,11.90
2023-01-25T10:56:24.305Z,11.94
2023-01-25T10:58:55.574Z,12.00
2023-01-25T11:01:38.175Z,12.10
2023-01-25T11:04:25.399Z,12.19
2023-01-25T11:06:53.395Z,12.30
2023-01-25T11:09:39.316Z,12.40
2023-01-25T11:12:19.705Z,12.46
2023-01-25T11:14:50.852Z,12.53
2023-01-25T11:17:27.274Z,12.55
2023-01-25T11:20:19.698Z,12.58
2023-01-25T11:22:52.566Z,12.64
2023-01-25T11:25:27.545Z,12.69
2023-01-25T11:28:12.244Z,12.72
2023-01-25T11:30:40.241Z,12.74
2023-01-25T11:33:15.898Z,12.75
2023-01-25T11:36:02.951Z,12.75
2023-01-25T11:38:31.021Z,12.72
2023-01-25T11:41:07.509Z,12.66
2023-01-25T11:43:58.935Z,12.56
2023-01-25T11:46:40.499Z,12.44
2023-01-25T11:49:27.552Z,12.36
2023-01-25T11:52:07.139Z,12.35
2023-01-25T11:54:49.794Z,12.36
2023-01-25T11:57:44.390Z,12.40
2023-01-25T12:00:40.785Z,12.48
2023-01-25T12:03:31.807Z,12.55
2023-01-25T12:06:10.651Z,12.64
2023-01-25T12:08:54.904Z,12.72
2023-01-25T12:11:35.972Z,12.79
2023-01-25T12:14:16.523Z,12.84
2023-01-25T12:17:07.552Z,12.90
2023-01-25T12:19:49.340Z,12.95
2023-01-25T12:22:53.974Z,12.93
2023-01-25T12:25:30.501Z,12.90
2023-01-25T12:28:12.161Z,12.91
2023-01-25T12:30:52.586Z,12.90
2023-01-25T12:33:26.619Z,12.87
2023-01-25T12:36:02.507Z,12.88
2023-01-25T12:38:41.180Z,12.88
2023-01-25T12:41:22.581Z,12.88
2023-01-25T12:43:57.615Z,12.90
2023-01-25T12:46:29.592Z,12.95
2023-01-25T12:49:02.889Z,13.03
2023-01-25T12:51:37.684Z,13.14
2023-01-25T12:54:18.992Z,13.25
2023-01-25T12:56:54.504Z,13.36
2023-01-25T12:59:30.777Z,13.42
2023-01-25T13:02:12.084Z,13.47
2023-01-25T13:04:54.459Z,13.48
2023-01-25T13:07:29.501Z,13.49
2023-01-25T13:10:03.954Z,13.50
2023-01-25T13:12:52.230Z,13.54
2023-01-25T13:15:37.505Z,13.57
2023-01-25T13:18:39.642Z,13.56
2023-01-25T13:21:12.739Z,13.60
2023-01-25T13:23:47.349Z,13.62
2023-01-25T13:26:47.310Z,13.69
2023-01-25T13:29:49.279Z,13.72
2023-01-25T13:32:58.910Z,13.78
2023-01-25T13:35:30.087Z,13.85
2023-01-25T13:38:04.065Z,13.89
2023-01-25T13:40:34.735Z,13.90
2023-01-25T13:43:07.045Z,13.93
2023-01-25T13:45:37.431Z,13.96
2023-01-25T13:48:14.143Z,14.02
2023-01-25T13:50:48.315Z,14.04
2023-01-25T13:53:21.730Z,14.10
2023-01-25T13:55:51.594Z,14.12
2023-01-25T13:58:24.262Z,14.15
2023-01-25T14:00:57.309Z,14.14
2023-01-25T14:03:29.240Z,14.20
2023-01-25T14:05:59.447Z,14.25
2023-01-25T14:08:28.232Z,14.26
2023-01-25T14:10:57.495Z,14.36
2023-01-25T14:13:27.140Z,14.36
2023-01-25T14:15:58.523Z,14.42
2023-01-25T14:18:32.262Z,14.48
2023-01-25T14:21:17.432Z,14.58
2023-01-25T14:23:46.231Z,14.61
2023-01-25T14:26:20.609Z,14.65
2023-01-25T14:29:01.123Z,14.61
2023-01-25T14:31:36.100Z,14.59
2023-01-25T14:34:06.212Z,14.57
2023-01-25T14:36:35.396Z,14.55
2023-01-25T14:39:05.018Z,14.52
2023-01-25T14:41:38.708Z,14.58
2023-01-25T14:44:14.269Z,14.67
2023-01-25T14:46:42.945Z,14.75
2023-01-25T14:49:25.367Z,14.76
2023-01-25T14:51:59.531Z,14.80
2023-01-25T14:54:30.423Z,14.78
2023-01-25T14:57:01.227Z,14.80
2023-01-25T14:59:38.430Z,14.78
2023-01-25T15:02:20.054Z,14.79
2023-01-25T15:05:08.036Z,14.74
2023-01-25T15:07:46.187Z,14.67
2023-01-25T15:10:21.229Z,14.62
2023-01-25T15:13:12.942Z,14.58
2023-01-25T15:15:54.915Z,14.59
2023-01-25T15:18:47.673Z,14.55
2023-01-25T15:21:17.632Z,14.53
2023-01-25T15:23:48.096Z,14.52
2023-01-25T15:26:20.868Z,14.53
2023-01-25T15:28:49.826Z,14.52
2023-01-25T15:31:22.225Z,14.56
2023-01-25T15:33:50.369Z,14.54
2023-01-25T15:36:18.723Z,14.51
2023-01-25T15:38:47.933Z,14.51
2023-01-25T15:41:18.477Z,14.50
2023-01-25T15:43:46.704Z,14.54
2023-01-25T15:46:19.468Z,14.51
2023-01-25T15:48:50.601Z,14.50
2023-01-25T15:51:18.867Z,14.47
2023-01-25T15:53:47.262Z,14.44
2023-01-25T15:56:19.113Z,14.40
2023-01-25T15:58:50.617Z,14.39
2023-01-25T16:01:18.990Z,14.37
2023-01-25T16:03:48.409Z,14.35
2023-01-25T16:06:36.759Z,14.35
2023-01-25T16:09:13.302Z,14.35
2023-01-25T16:11:42.434Z,14.35
2023-01-25T16:14:10.471Z,14.34
2023-01-25T16:16:42.266Z,14.43
2023-01-25T16:19:14.534Z,14.34
2023-01-25T16:21:42.845Z,14.33
2023-01-25T16:24:12.388Z,14.32
2023-01-25T16:26:45.881Z,14.31
2023-01-25T16:29:13.917Z,14.27
2023-01-25T16:31:42.073Z,14.25
2023-01-25T16:34:10.286Z,14.26
2023-01-25T16:36:40.309Z,14.22
2023-01-25T16:39:14.843Z,14.22
2023-01-25T16:41:42.864Z,14.22
2023-01-25T16:44:11.065Z,14.21
2023-01-25T16:46:39.452Z,14.20
2023-01-25T16:49:10.266Z,14.17
2023-01-25T16:51:40.474Z,14.16
2023-01-25T16:54:11.739Z,14.15
2023-01-25T16:56:40.074Z,14.15
2023-01-25T16:59:11.695Z,14.21
2023-01-25T17:01:41.595Z,14.14
2023-01-25T17:04:10.469Z,14.13
2023-01-25T17:06:44.226Z,14.11
2023-01-25T17:09:23.008Z,14.09
2023-01-25T17:11:54.806Z,14.09
2023-01-25T17:14:24.084Z,14.07
2023-01-25T17:16:53.522Z,14.09
2023-01-25T17:19:21.934Z,14.08
2023-01-25T17:21:51.726Z,14.08
2023-01-25T17:24:22.489Z,14.06
2023-01-25T17:26:51.194Z,14.05
2023-01-25T17:29:19.328Z,14.06
2023-01-25T17:31:47.582Z,14.06
2023-01-25T17:34:19.379Z,14.08
2023-01-25T17:36:50.495Z,14.07
2023-01-25T17:39:22.794Z,14.11
2023-01-25T17:41:52.266Z,14.11
2023-01-25T17:44:22.178Z,14.06
2023-01-25T17:46:51.355Z,14.10
2023-01-25T17:49:20.178Z,14.10
2023-01-25T17:51:48.262Z,14.13
2023-01-25T17:54:16.433Z,14.16
2023-01-25T17:56:45.709Z,14.10
2023-01-25T17:59:13.754Z,14.13
2023-01-25T18:01:42.940Z,14.15
2023-01-25T18:04:13.289Z,14.15
2023-01-25T18:06:41.694Z,14.15
2023-01-25T18:09:12.840Z,14.15
2023-01-25T18:11:41.254Z,14.15
2023-01-25T18:14:15.128Z,14.12
2023-01-25T18:16:43.751Z,14.09
2023-01-25T18:19:12.299Z,14.04
2023-01-25T18:21:42.060Z,14.02
2023-01-25T18:24:25.112Z,13.95
2023-01-25T18:26:55.439Z,13.91
2023-01-25T18:29:50.631Z,13.85
2023-01-25T18:32:18.648Z,13.80
2023-01-25T18:34:46.892Z,13.79
2023-01-25T18:37:23.376Z,13.73
2023-01-25T18:39:52.958Z,13.61
2023-01-25T18:42:22.479Z,13.57
2023-01-25T18:44:51.984Z,13.49
2023-01-25T18:47:22.613Z,13.44
2023-01-25T18:49:52.421Z,13.41
2023-01-25T18:52:21.954Z,13.34
2023-01-25T18:54:50.267Z,13.30
2023-01-25T18:57:18.981Z,13.30
2023-01-25T18:59:47.427Z,13.26
2023-01-25T19:02:18.280Z,13.24
2023-01-25T19:04:46.749Z,13.24
2023-01-25T19:07:14.907Z,13.22
2023-01-25T19:09:43.675Z,13.18
2023-01-25T19:12:12.145Z,13.17
2023-01-25T19:14:40.307Z,13.13
2023-01-25T19:17:08.978Z,13.08
2023-01-25T19:19:38.540Z,13.05
2023-01-25T19:22:06.868Z,13.01
2023-01-25T19:24:34.920Z,12.95
2023-01-25T19:27:03.559Z,12.91
2023-01-25T19:29:31.654Z,12.86
2023-01-25T19:32:00.008Z,12.80
2023-01-25T19:34:28.208Z,12.77
2023-01-25T19:36:58.287Z,12.72
2023-01-25T19:39:26.344Z,12.66
2023-01-25T19:41:54.788Z,12.59
2023-01-25T19:44:24.660Z,12.56
2023-01-25T19:46:52.727Z,12.53
2023-01-25T19:49:22.378Z,12.48
2023-01-25T19:51:53.331Z,12.44
2023-01-25T19:54:24.431Z,12.38
2023-01-25T19:56:52.804Z,12.36
2023-01-25T19:59:25.105Z,12.34
2023-01-25T20:01:53.749Z,12.30
2023-01-25T20:04:23.880Z,12.25
2023-01-25T20:06:53.072Z,12.22
2023-01-25T20:09:27.801Z,12.19
2023-01-25T20:11:56.882Z,12.14
2023-01-25T20:14:24.972Z,12.14
2023-01-25T20:16:54.044Z,12.08
2023-01-25T20:19:22.342Z,12.08
2023-01-25T20:21:50.903Z,12.04
2023-01-25T20:24:19.366Z,12.04
2023-01-25T20:26:49.248Z,12.00
2023-01-25T20:29:17.295Z,11.96
2023-01-25T20:31:47.049Z,11.95
2023-01-25T20:34:17.198Z,11.92
2023-01-25T20:36:46.225Z,11.89
2023-01-25T20:39:16.632Z,11.85
2023-01-25T20:41:46.545Z,11.84
2023-01-25T20:44:18.675Z,11.81
2023-01-25T20:46:46.930Z,11.78
2023-01-25T20:49:16.894Z,11.78
2023-01-25T20:51:45.504Z,11.76
2023-01-25T20:54:13.777Z,11.72
2023-01-25T20:56:48.063Z,11.75
2023-01-25T20:59:19.440Z,11.71
2023-01-25T21:01:51.099Z,11.70
2023-01-25T21:04:19.274Z,11.67
2023-01-25T21:06:47.983Z,11.65
2023-01-25T21:09:19.340Z,11.62
2023-01-25T21:11:48.864Z,11.58
2023-01-25T21:14:24.354Z,11.55
2023-01-25T21:16:55.588Z,11.54
2023-01-25T21:19:28.473Z,11.52
2023-01-25T21:21:56.882Z,11.55
2023-01-25T21:24:25.233Z,11.52
2023-01-25T21:26:53.947Z,11.51
2023-01-25T21:29:25.619Z,11.53
2023-01-25T21:31:54.741Z,11.54
2023-01-25T21:34:23.512Z,11.48
2023-01-25T21:36:54.631Z,11.40
2023-01-25T21:39:23.185Z,11.38
2023-01-25T21:41:51.522Z,11.31
2023-01-25T21:44:37.417Z,11.26
2023-01-25T21:47:28.752Z,11.22
2023-01-25T21:50:12.526Z,11.22
2023-01-25T21:52:43.563Z,11.19
2023-01-25T21:55:11.975Z,11.17
2023-01-25T21:57:46.996Z,11.20
2023-01-25T22:00:17.235Z,11.18
2023-01-25T22:02:47.193Z,11.17
2023-01-25T22:05:15.932Z,11.12
2023-01-25T22:07:44.015Z,11.12
2023-01-25T22:10:12.877Z,11.09
2023-01-25T22:12:41.059Z,11.07
2023-01-25T22:15:09.783Z,11.04
2023-01-25T22:17:37.793Z,11.01
2023-01-25T22:20:08.758Z,10.97
2023-01-25T22:22:36.937Z,10.94
2023-01-25T22:25:05.388Z,10.94
2023-01-25T22:27:39.329Z,10.95
2023-01-25T22:30:08.847Z,10.95
2023-01-25T22:32:40.097Z,10.93
2023-01-25T22:35:10.284Z,10.93
2023-01-25T22:37:38.920Z,10.92
2023-01-25T22:40:10.056Z,10.88
2023-01-25T22:42:38.425Z,10.89
2023-01-25T22:45:07.902Z,10.86
2023-01-25T22:47:36.092Z,10.87
2023-01-25T22:50:04.223Z,10.87
2023-01-25T22:52:33.761Z,10.88
2023-01-25T22:55:01.946Z,10.90
2023-01-25T22:57:29.997Z,10.87
2023-01-25T22:59:58.251Z,10.91
2023-01-25T23:02:26.318Z,10.92
2023-01-25T23:04:54.693Z,10.92
2023-01-25T23:07:22.880Z,10.94
2023-01-25T23:09:52.604Z,10.94
2023-01-25T23:12:21.903Z,10.90
2023-01-25T23:14:53.107Z,10.83
2023-01-25T23:17:39.666Z,10.72
2023-01-25T23:20:10.685Z,10.65
2023-01-25T23:22:41.761Z,10.54
2023-01-25T23:25:12.334Z,10.45
2023-01-25T23:27:40.644Z,10.39
2023-01-25T23:30:11.448Z,10.33
2023-01-25T23:32:39.786Z,10.28
2023-01-25T23:35:08.645Z,10.22
2023-01-25T23:37:36.962Z,10.20
2023-01-25T23:40:09.575Z,10.19
2023-01-25T23:42:40.362Z,10.15
2023-01-25T23:45:10.898Z,10.15
2023-01-25T23:47:39.203Z,10.16
2023-01-25T23:50:08.801Z,10.20
2023-01-25T23:52:37.896Z,10.23
2023-01-25T23:55:06.892Z,10.27
2023-01-25T23:57:35.083Z,10.29
